sensor_id;sensor_type;location;lat;lon;timestamp;P1;durP1;ratioP1;P2;durP2;ratioP2
13991;SDS011;7070;53.586;9.692;2023-05-07T00:00:21;0.50;;;0.50;;
13991;SDS011;7070;53.586;9.692;2023-05-07T00:02:48;0.60;;;0.60;;
13991;SDS011;7070;53.586;9.692;2023-05-07T00:05:16;0.60;;;0.60;;
13991;SDS011;7070;53.586;9.692;2023-05-07T00:07:43;0.60;;;0.60;;
13991;SDS011;7070;53.586;9.692;2023-05-07T00:10:10;0.60;;;0.60;;
13991;SDS011;7070;53.586;9.692;2023-05-07T00:12:37;0.70;;;0.70;;
13991;SDS011;7070;53.586;9.692;2023-05-07T00:15:05;0.60;;;0.60;;
13991;SDS011;7070;53.586;9.692;2023-05-07T00:17:34;0.60;;;0.60;;
13991;SDS011;7070;53.586;9.692;2023-05-07T00:20:01;0.53;;;0.53;;
13991;SDS011;7070;53.586;9.692;2023-05-07T00:22:29;0.60;;;0.60;;
13991;SDS011;7070;53.586;9.692;2023-05-07T00:24:57;0.60;;;0.60;;
13991;SDS011;7070;53.586;9.692;2023-05-07T00:27:24;0.60;;;0.60;;
13991;SDS011;7070;53.586;9.692;2023-05-07T00:29:51;0.50;;;0.50;;
13991;SDS011;7070;53.586;9.692;2023-05-07T00:32:18;0.50;;;0.50;;
13991;SDS011;7070;53.586;9.692;2023-05-07T00:34:46;0.60;;;0.60;;
13991;SDS011;7070;53.586;9.692;2023-05-07T00:37:13;0.60;;;0.60;;
13991;SDS011;7070;53.586;9.692;2023-05-07T00:39:40;0.60;;;0.60;;
13991;SDS011;7070;53.586;9.692;2023-05-07T00:42:07;0.60;;;0.60;;
13991;SDS011;7070;53.586;9.692;2023-05-07T00:44:34;0.60;;;0.60;;
13991;SDS011;7070;53.586;9.692;2023-05-07T00:47:01;0.57;;;0.57;;
13991;SDS011;7070;53.586;9.692;2023-05-07T00:49:34;0.50;;;0.50;;
13991;SDS011;7070;53.586;9.692;2023-05-07T00:52:07;0.50;;;0.50;;
13991;SDS011;7070;53.586;9.692;2023-05-07T00:54:35;0.50;;;0.50;;
13991;SDS011;7070;53.586;9.692;2023-05-07T00:57:03;0.60;;;0.60;;
13991;SDS011;7070;53.586;9.692;2023-05-07T00:59:30;0.60;;;0.60;;
13991;SDS011;7070;53.586;9.692;2023-05-07T01:01:57;0.50;;;0.50;;
13991;SDS011;7070;53.586;9.692;2023-05-07T01:04:25;0.60;;;0.60;;
13991;SDS011;7070;53.586;9.692;2023-05-07T01:06:52;0.63;;;0.63;;
13991;SDS011;7070;53.586;9.692;2023-05-07T01:09:22;0.57;;;0.57;;
13991;SDS011;7070;53.586;9.692;2023-05-07T01:11:50;0.60;;;0.60;;
13991;SDS011;7070;53.586;9.692;2023-05-07T01:14:18;0.50;;;0.50;;
13991;SDS011;7070;53.586;9.692;2023-05-07T01:16:46;0.50;;;0.50;;
13991;SDS011;7070;53.586;9.692;2023-05-07T01:19:13;0.50;;;0.50;;
13991;SDS011;7070;53.586;9.692;2023-05-07T01:21:43;0.60;;;0.60;;
13991;SDS011;7070;53.586;9.692;2023-05-07T01:24:14;0.53;;;0.53;;
13991;SDS011;7070;53.586;9.692;2023-05-07T01:26:41;0.60;;;0.60;;
13991;SDS011;7070;53.586;9.692;2023-05-07T01:29:08;0.60;;;0.60;;
13991;SDS011;7070;53.586;9.692;2023-05-07T01:31:35;0.60;;;0.60;;
13991;SDS011;7070;53.586;9.692;2023-05-07T01:34:03;0.57;;;0.57;;
13991;SDS011;7070;53.586;9.692;2023-05-07T01:36:33;0.57;;;0.57;;
13991;SDS011;7070;53.586;9.692;2023-05-07T01:39:01;0.60;;;0.60;;
13991;SDS011;7070;53.586;9.692;2023-05-07T01:41:30;0.50;;;0.50;;
13991;SDS011;7070;53.586;9.692;2023-05-07T01:43:57;0.60;;;0.60;;
13991;SDS011;7070;53.586;9.692;2023-05-07T01:46:26;0.53;;;0.53;;
13991;SDS011;7070;53.586;9.692;2023-05-07T01:48:53;0.60;;;0.60;;
13991;SDS011;7070;53.586;9.692;2023-05-07T01:51:20;0.60;;;0.60;;
13991;SDS011;7070;53.586;9.692;2023-05-07T01:53:47;0.50;;;0.50;;
13991;SDS011;7070;53.586;9.692;2023-05-07T01:56:16;0.60;;;0.60;;
13991;SDS011;7070;53.586;9.692;2023-05-07T01:58:45;0.60;;;0.60;;
13991;SDS011;7070;53.586;9.692;2023-05-07T02:01:12;0.47;;;0.47;;
13991;SDS011;7070;53.586;9.692;2023-05-07T02:03:39;0.60;;;0.60;;
13991;SDS011;7070;53.586;9.692;2023-05-07T02:06:06;0.60;;;0.60;;
13991;SDS011;7070;53.586;9.692;2023-05-07T02:08:33;0.60;;;0.60;;
13991;SDS011;7070;53.586;9.692;2023-05-07T02:11:00;0.50;;;0.50;;
13991;SDS011;7070;53.586;9.692;2023-05-07T02:13:28;0.50;;;0.50;;
13991;SDS011;7070;53.586;9.692;2023-05-07T02:16:00;0.60;;;0.60;;
13991;SDS011;7070;53.586;9.692;2023-05-07T02:18:28;0.50;;;0.50;;
13991;SDS011;7070;53.586;9.692;2023-05-07T02:20:54;0.50;;;0.50;;
13991;SDS011;7070;53.586;9.692;2023-05-07T02:23:21;0.50;;;0.50;;
13991;SDS011;7070;53.586;9.692;2023-05-07T02:25:48;0.70;;;0.70;;
13991;SDS011;7070;53.586;9.692;2023-05-07T02:28:15;0.60;;;0.60;;
13991;SDS011;7070;53.586;9.692;2023-05-07T02:30:42;0.60;;;0.60;;
13991;SDS011;7070;53.586;9.692;2023-05-07T02:33:10;0.60;;;0.60;;
13991;SDS011;7070;53.586;9.692;2023-05-07T02:35:37;0.60;;;0.60;;
13991;SDS011;7070;53.586;9.692;2023-05-07T02:38:04;0.60;;;0.60;;
13991;SDS011;7070;53.586;9.692;2023-05-07T02:40:31;0.60;;;0.60;;
13991;SDS011;7070;53.586;9.692;2023-05-07T02:43:03;0.60;;;0.60;;
13991;SDS011;7070;53.586;9.692;2023-05-07T02:45:30;0.50;;;0.50;;
13991;SDS011;7070;53.586;9.692;2023-05-07T02:47:57;0.60;;;0.60;;
13991;SDS011;7070;53.586;9.692;2023-05-07T02:50:26;0.60;;;0.60;;
13991;SDS011;7070;53.586;9.692;2023-05-07T02:52:52;0.60;;;0.60;;
13991;SDS011;7070;53.586;9.692;2023-05-07T02:55:19;0.60;;;0.60;;
13991;SDS011;7070;53.586;9.692;2023-05-07T02:57:46;0.60;;;0.60;;
13991;SDS011;7070;53.586;9.692;2023-05-07T03:00:14;0.60;;;0.60;;
13991;SDS011;7070;53.586;9.692;2023-05-07T03:02:42;0.60;;;0.60;;
13991;SDS011;7070;53.586;9.692;2023-05-07T03:05:09;0.60;;;0.60;;
13991;SDS011;7070;53.586;9.692;2023-05-07T03:07:38;0.60;;;0.60;;
13991;SDS011;7070;53.586;9.692;2023-05-07T03:10:06;0.60;;;0.60;;
13991;SDS011;7070;53.586;9.692;2023-05-07T03:12:34;0.60;;;0.60;;
13991;SDS011;7070;53.586;9.692;2023-05-07T03:15:01;0.60;;;0.60;;
13991;SDS011;7070;53.586;9.692;2023-05-07T03:17:28;0.60;;;0.60;;
13991;SDS011;7070;53.586;9.692;2023-05-07T03:19:54;0.60;;;0.60;;
13991;SDS011;7070;53.586;9.692;2023-05-07T03:22:21;0.60;;;0.60;;
13991;SDS011;7070;53.586;9.692;2023-05-07T03:24:49;0.57;;;0.57;;
13991;SDS011;7070;53.586;9.692;2023-05-07T03:27:16;0.60;;;0.60;;
13991;SDS011;7070;53.586;9.692;2023-05-07T03:29:43;0.60;;;0.60;;
13991;SDS011;7070;53.586;9.692;2023-05-07T03:32:10;0.50;;;0.50;;
13991;SDS011;7070;53.586;9.692;2023-05-07T03:34:37;0.60;;;0.60;;
13991;SDS011;7070;53.586;9.692;2023-05-07T03:37:03;0.60;;;0.60;;
13991;SDS011;7070;53.586;9.692;2023-05-07T03:39:30;0.60;;;0.60;;
13991;SDS011;7070;53.586;9.692;2023-05-07T03:41:59;0.60;;;0.60;;
13991;SDS011;7070;53.586;9.692;2023-05-07T03:44:26;0.60;;;0.60;;
13991;SDS011;7070;53.586;9.692;2023-05-07T03:46:53;0.50;;;0.50;;
13991;SDS011;7070;53.586;9.692;2023-05-07T03:49:20;0.50;;;0.50;;
13991;SDS011;7070;53.586;9.692;2023-05-07T03:51:47;0.60;;;0.60;;
13991;SDS011;7070;53.586;9.692;2023-05-07T03:54:14;0.60;;;0.60;;
13991;SDS011;7070;53.586;9.692;2023-05-07T03:56:40;0.50;;;0.50;;
13991;SDS011;7070;53.586;9.692;2023-05-07T03:59:09;0.57;;;0.57;;
13991;SDS011;7070;53.586;9.692;2023-05-07T04:01:35;0.60;;;0.60;;
13991;SDS011;7070;53.586;9.692;2023-05-07T04:04:02;0.50;;;0.50;;
13991;SDS011;7070;53.586;9.692;2023-05-07T04:06:29;0.60;;;0.60;;
13991;SDS011;7070;53.586;9.692;2023-05-07T04:08:56;0.60;;;0.60;;
13991;SDS011;7070;53.586;9.692;2023-05-07T04:11:23;0.50;;;0.50;;
13991;SDS011;7070;53.586;9.692;2023-05-07T04:13:50;0.50;;;0.50;;
13991;SDS011;7070;53.586;9.692;2023-05-07T04:16:19;0.50;;;0.50;;
13991;SDS011;7070;53.586;9.692;2023-05-07T04:18:45;0.50;;;0.50;;
13991;SDS011;7070;53.586;9.692;2023-05-07T04:21:15;0.60;;;0.60;;
13991;SDS011;7070;53.586;9.692;2023-05-07T04:23:43;0.60;;;0.60;;
13991;SDS011;7070;53.586;9.692;2023-05-07T04:26:10;0.50;;;0.50;;
13991;SDS011;7070;53.586;9.692;2023-05-07T04:28:37;0.60;;;0.60;;
13991;SDS011;7070;53.586;9.692;2023-05-07T04:31:05;0.60;;;0.60;;
13991;SDS011;7070;53.586;9.692;2023-05-07T04:33:33;0.60;;;0.60;;
13991;SDS011;7070;53.586;9.692;2023-05-07T04:36:01;0.50;;;0.50;;
13991;SDS011;7070;53.586;9.692;2023-05-07T04:38:29;0.60;;;0.60;;
13991;SDS011;7070;53.586;9.692;2023-05-07T04:40:56;0.60;;;0.60;;
13991;SDS011;7070;53.586;9.692;2023-05-07T04:43:23;0.60;;;0.60;;
13991;SDS011;7070;53.586;9.692;2023-05-07T04:45:50;0.60;;;0.60;;
13991;SDS011;7070;53.586;9.692;2023-05-07T04:48:17;0.53;;;0.53;;
13991;SDS011;7070;53.586;9.692;2023-05-07T04:50:48;0.60;;;0.60;;
13991;SDS011;7070;53.586;9.692;2023-05-07T04:53:15;0.57;;;0.57;;
13991;SDS011;7070;53.586;9.692;2023-05-07T04:55:43;0.60;;;0.60;;
13991;SDS011;7070;53.586;9.692;2023-05-07T04:58:10;0.60;;;0.60;;
13991;SDS011;7070;53.586;9.692;2023-05-07T05:00:36;0.60;;;0.60;;
13991;SDS011;7070;53.586;9.692;2023-05-07T05:03:03;0.50;;;0.50;;
13991;SDS011;7070;53.586;9.692;2023-05-07T05:05:30;0.50;;;0.50;;
13991;SDS011;7070;53.586;9.692;2023-05-07T05:07:58;0.60;;;0.60;;
13991;SDS011;7070;53.586;9.692;2023-05-07T05:10:25;0.50;;;0.50;;
13991;SDS011;7070;53.586;9.692;2023-05-07T05:12:52;0.50;;;0.50;;
13991;SDS011;7070;53.586;9.692;2023-05-07T05:15:19;0.60;;;0.60;;
13991;SDS011;7070;53.586;9.692;2023-05-07T05:17:46;0.60;;;0.60;;
13991;SDS011;7070;53.586;9.692;2023-05-07T05:20:13;0.50;;;0.50;;
13991;SDS011;7070;53.586;9.692;2023-05-07T05:22:40;0.60;;;0.60;;
13991;SDS011;7070;53.586;9.692;2023-05-07T05:25:09;0.60;;;0.60;;
13991;SDS011;7070;53.586;9.692;2023-05-07T05:27:35;0.40;;;0.40;;
13991;SDS011;7070;53.586;9.692;2023-05-07T05:30:03;0.60;;;0.60;;
13991;SDS011;7070;53.586;9.692;2023-05-07T05:32:31;0.60;;;0.60;;
13991;SDS011;7070;53.586;9.692;2023-05-07T05:34:57;0.50;;;0.50;;
13991;SDS011;7070;53.586;9.692;2023-05-07T05:37:25;0.60;;;0.60;;
13991;SDS011;7070;53.586;9.692;2023-05-07T05:39:51;0.60;;;0.60;;
13991;SDS011;7070;53.586;9.692;2023-05-07T05:42:21;0.60;;;0.60;;
13991;SDS011;7070;53.586;9.692;2023-05-07T05:44:47;0.60;;;0.60;;
13991;SDS011;7070;53.586;9.692;2023-05-07T05:47:14;0.50;;;0.50;;
13991;SDS011;7070;53.586;9.692;2023-05-07T05:49:41;0.60;;;0.60;;
13991;SDS011;7070;53.586;9.692;2023-05-07T05:52:09;0.60;;;0.60;;
13991;SDS011;7070;53.586;9.692;2023-05-07T05:54:36;0.60;;;0.60;;
13991;SDS011;7070;53.586;9.692;2023-05-07T05:57:03;0.50;;;0.50;;
13991;SDS011;7070;53.586;9.692;2023-05-07T05:59:32;0.60;;;0.60;;
13991;SDS011;7070;53.586;9.692;2023-05-07T06:01:59;0.50;;;0.50;;
13991;SDS011;7070;53.586;9.692;2023-05-07T06:04:26;0.50;;;0.50;;
13991;SDS011;7070;53.586;9.692;2023-05-07T06:06:53;0.57;;;0.57;;
13991;SDS011;7070;53.586;9.692;2023-05-07T06:09:20;0.53;;;0.53;;
13991;SDS011;7070;53.586;9.692;2023-05-07T06:11:46;0.50;;;0.50;;
13991;SDS011;7070;53.586;9.692;2023-05-07T06:14:13;0.50;;;0.50;;
13991;SDS011;7070;53.586;9.692;2023-05-07T06:16:42;0.50;;;0.50;;
13991;SDS011;7070;53.586;9.692;2023-05-07T06:19:09;0.50;;;0.50;;
13991;SDS011;7070;53.586;9.692;2023-05-07T06:21:35;0.50;;;0.50;;
13991;SDS011;7070;53.586;9.692;2023-05-07T06:24:02;0.60;;;0.60;;
13991;SDS011;7070;53.586;9.692;2023-05-07T06:26:29;0.50;;;0.50;;
13991;SDS011;7070;53.586;9.692;2023-05-07T06:28:56;0.50;;;0.50;;
13991;SDS011;7070;53.586;9.692;2023-05-07T06:31:28;0.60;;;0.60;;
13991;SDS011;7070;53.586;9.692;2023-05-07T06:33:57;0.60;;;0.60;;
13991;SDS011;7070;53.586;9.692;2023-05-07T06:36:25;0.50;;;0.50;;
13991;SDS011;7070;53.586;9.692;2023-05-07T06:38:52;0.50;;;0.50;;
13991;SDS011;7070;53.586;9.692;2023-05-07T06:41:19;0.60;;;0.60;;
13991;SDS011;7070;53.586;9.692;2023-05-07T06:43:46;0.60;;;0.60;;
13991;SDS011;7070;53.586;9.692;2023-05-07T06:46:13;0.60;;;0.60;;
13991;SDS011;7070;53.586;9.692;2023-05-07T06:48:40;0.70;;;0.70;;
13991;SDS011;7070;53.586;9.692;2023-05-07T06:51:08;0.60;;;0.60;;
13991;SDS011;7070;53.586;9.692;2023-05-07T06:53:35;0.60;;;0.60;;
13991;SDS011;7070;53.586;9.692;2023-05-07T06:56:02;0.60;;;0.60;;
13991;SDS011;7070;53.586;9.692;2023-05-07T06:58:29;0.60;;;0.60;;
13991;SDS011;7070;53.586;9.692;2023-05-07T07:00:56;0.50;;;0.50;;
13991;SDS011;7070;53.586;9.692;2023-05-07T07:03:23;0.50;;;0.50;;
13991;SDS011;7070;53.586;9.692;2023-05-07T07:05:51;0.50;;;0.50;;
13991;SDS011;7070;53.586;9.692;2023-05-07T07:08:19;0.50;;;0.50;;
13991;SDS011;7070;53.586;9.692;2023-05-07T07:10:47;0.50;;;0.50;;
13991;SDS011;7070;53.586;9.692;2023-05-07T07:13:14;0.50;;;0.50;;
13991;SDS011;7070;53.586;9.692;2023-05-07T07:15:41;0.50;;;0.50;;
13991;SDS011;7070;53.586;9.692;2023-05-07T07:18:09;0.60;;;0.60;;
13991;SDS011;7070;53.586;9.692;2023-05-07T07:20:36;0.60;;;0.60;;
13991;SDS011;7070;53.586;9.692;2023-05-07T07:23:03;0.50;;;0.50;;
13991;SDS011;7070;53.586;9.692;2023-05-07T07:25:31;0.60;;;0.60;;
13991;SDS011;7070;53.586;9.692;2023-05-07T07:27:58;0.60;;;0.60;;
13991;SDS011;7070;53.586;9.692;2023-05-07T07:30:25;0.50;;;0.50;;
13991;SDS011;7070;53.586;9.692;2023-05-07T07:32:52;0.50;;;0.50;;
13991;SDS011;7070;53.586;9.692;2023-05-07T07:35:20;0.50;;;0.50;;
13991;SDS011;7070;53.586;9.692;2023-05-07T07:37:47;0.60;;;0.60;;
13991;SDS011;7070;53.586;9.692;2023-05-07T07:40:16;0.50;;;0.50;;
13991;SDS011;7070;53.586;9.692;2023-05-07T07:42:44;0.60;;;0.60;;
13991;SDS011;7070;53.586;9.692;2023-05-07T07:45:11;0.50;;;0.50;;
13991;SDS011;7070;53.586;9.692;2023-05-07T07:47:38;0.50;;;0.50;;
13991;SDS011;7070;53.586;9.692;2023-05-07T07:50:06;0.43;;;0.43;;
13991;SDS011;7070;53.586;9.692;2023-05-07T07:52:33;0.40;;;0.40;;
13991;SDS011;7070;53.586;9.692;2023-05-07T07:55:00;0.50;;;0.50;;
13991;SDS011;7070;53.586;9.692;2023-05-07T07:57:28;0.60;;;0.60;;
13991;SDS011;7070;53.586;9.692;2023-05-07T07:59:56;0.60;;;0.60;;
13991;SDS011;7070;53.586;9.692;2023-05-07T08:02:23;0.50;;;0.50;;
13991;SDS011;7070;53.586;9.692;2023-05-07T08:04:50;0.50;;;0.50;;
13991;SDS011;7070;53.586;9.692;2023-05-07T08:07:17;0.50;;;0.50;;
13991;SDS011;7070;53.586;9.692;2023-05-07T08:09:45;0.47;;;0.47;;
13991;SDS011;7070;53.586;9.692;2023-05-07T08:12:12;0.40;;;0.40;;
13991;SDS011;7070;53.586;9.692;2023-05-07T08:14:40;0.50;;;0.50;;
13991;SDS011;7070;53.586;9.692;2023-05-07T08:17:08;0.40;;;0.40;;
13991;SDS011;7070;53.586;9.692;2023-05-07T08:19:35;0.50;;;0.50;;
13991;SDS011;7070;53.586;9.692;2023-05-07T08:22:02;0.50;;;0.50;;
13991;SDS011;7070;53.586;9.692;2023-05-07T08:24:30;0.43;;;0.43;;
13991;SDS011;7070;53.586;9.692;2023-05-07T08:26:57;0.53;;;0.53;;
13991;SDS011;7070;53.586;9.692;2023-05-07T08:29:24;0.50;;;0.50;;
13991;SDS011;7070;53.586;9.692;2023-05-07T08:31:51;0.50;;;0.50;;
13991;SDS011;7070;53.586;9.692;2023-05-07T08:34:21;0.43;;;0.43;;
13991;SDS011;7070;53.586;9.692;2023-05-07T08:36:49;0.40;;;0.40;;
13991;SDS011;7070;53.586;9.692;2023-05-07T08:39:15;0.40;;;0.40;;
13991;SDS011;7070;53.586;9.692;2023-05-07T08:41:43;0.50;;;0.50;;
13991;SDS011;7070;53.586;9.692;2023-05-07T08:44:12;0.40;;;0.40;;
13991;SDS011;7070;53.586;9.692;2023-05-07T08:46:40;0.40;;;0.40;;
13991;SDS011;7070;53.586;9.692;2023-05-07T08:49:08;0.40;;;0.40;;
13991;SDS011;7070;53.586;9.692;2023-05-07T08:51:36;0.40;;;0.40;;
13991;SDS011;7070;53.586;9.692;2023-05-07T08:54:04;0.50;;;0.50;;
13991;SDS011;7070;53.586;9.692;2023-05-07T08:56:32;0.40;;;0.40;;
13991;SDS011;7070;53.586;9.692;2023-05-07T08:58:59;0.43;;;0.43;;
13991;SDS011;7070;53.586;9.692;2023-05-07T09:01:26;0.47;;;0.47;;
13991;SDS011;7070;53.586;9.692;2023-05-07T09:03:53;0.43;;;0.43;;
13991;SDS011;7070;53.586;9.692;2023-05-07T09:06:20;0.50;;;0.50;;
13991;SDS011;7070;53.586;9.692;2023-05-07T09:08:52;0.50;;;0.50;;
13991;SDS011;7070;53.586;9.692;2023-05-07T09:11:20;0.50;;;0.50;;
13991;SDS011;7070;53.586;9.692;2023-05-07T09:13:48;0.50;;;0.50;;
13991;SDS011;7070;53.586;9.692;2023-05-07T09:16:20;0.50;;;0.50;;
13991;SDS011;7070;53.586;9.692;2023-05-07T09:18:48;0.50;;;0.50;;
13991;SDS011;7070;53.586;9.692;2023-05-07T09:21:17;0.50;;;0.50;;
13991;SDS011;7070;53.586;9.692;2023-05-07T09:23:45;0.50;;;0.50;;
13991;SDS011;7070;53.586;9.692;2023-05-07T09:26:15;0.40;;;0.40;;
13991;SDS011;7070;53.586;9.692;2023-05-07T09:28:42;0.47;;;0.47;;
13991;SDS011;7070;53.586;9.692;2023-05-07T09:31:11;0.50;;;0.50;;
13991;SDS011;7070;53.586;9.692;2023-05-07T09:33:38;0.50;;;0.50;;
13991;SDS011;7070;53.586;9.692;2023-05-07T09:36:06;0.40;;;0.40;;
13991;SDS011;7070;53.586;9.692;2023-05-07T09:38:35;0.40;;;0.40;;
13991;SDS011;7070;53.586;9.692;2023-05-07T09:41:03;0.40;;;0.40;;
13991;SDS011;7070;53.586;9.692;2023-05-07T09:43:35;0.50;;;0.50;;
13991;SDS011;7070;53.586;9.692;2023-05-07T09:46:06;0.30;;;0.30;;
13991;SDS011;7070;53.586;9.692;2023-05-07T09:48:37;0.30;;;0.30;;
13991;SDS011;7070;53.586;9.692;2023-05-07T09:51:06;0.47;;;0.47;;
13991;SDS011;7070;53.586;9.692;2023-05-07T09:53:41;0.40;;;0.40;;
13991;SDS011;7070;53.586;9.692;2023-05-07T09:56:11;0.40;;;0.40;;
13991;SDS011;7070;53.586;9.692;2023-05-07T09:58:41;0.40;;;0.40;;
13991;SDS011;7070;53.586;9.692;2023-05-07T10:01:10;0.40;;;0.40;;
13991;SDS011;7070;53.586;9.692;2023-05-07T10:03:37;0.40;;;0.40;;
13991;SDS011;7070;53.586;9.692;2023-05-07T10:06:08;0.40;;;0.40;;
13991;SDS011;7070;53.586;9.692;2023-05-07T10:08:35;0.40;;;0.40;;
13991;SDS011;7070;53.586;9.692;2023-05-07T10:11:03;0.50;;;0.50;;
13991;SDS011;7070;53.586;9.692;2023-05-07T10:13:30;0.40;;;0.40;;
13991;SDS011;7070;53.586;9.692;2023-05-07T10:15:59;0.47;;;0.47;;
13991;SDS011;7070;53.586;9.692;2023-05-07T10:18:27;0.40;;;0.40;;
13991;SDS011;7070;53.586;9.692;2023-05-07T10:20:58;0.40;;;0.40;;
13991;SDS011;7070;53.586;9.692;2023-05-07T10:23:28;0.40;;;0.40;;
13991;SDS011;7070;53.586;9.692;2023-05-07T10:25:57;0.40;;;0.40;;
13991;SDS011;7070;53.586;9.692;2023-05-07T10:28:25;0.40;;;0.40;;
13991;SDS011;7070;53.586;9.692;2023-05-07T10:30:58;0.30;;;0.30;;
13991;SDS011;7070;53.586;9.692;2023-05-07T10:33:39;0.40;;;0.40;;
13991;SDS011;7070;53.586;9.692;2023-05-07T10:36:08;0.40;;;0.40;;
13991;SDS011;7070;53.586;9.692;2023-05-07T10:38:35;0.33;;;0.33;;
13991;SDS011;7070;53.586;9.692;2023-05-07T10:41:03;0.40;;;0.40;;
13991;SDS011;7070;53.586;9.692;2023-05-07T10:43:40;0.40;;;0.40;;
13991;SDS011;7070;53.586;9.692;2023-05-07T10:46:13;0.40;;;0.40;;
13991;SDS011;7070;53.586;9.692;2023-05-07T10:51:34;0.40;;;0.40;;
13991;SDS011;7070;53.586;9.692;2023-05-07T10:54:21;0.43;;;0.43;;
13991;SDS011;7070;53.586;9.692;2023-05-07T10:56:48;0.40;;;0.40;;
13991;SDS011;7070;53.586;9.692;2023-05-07T11:02:08;0.40;;;0.40;;
13991;SDS011;7070;53.586;9.692;2023-05-07T11:04:36;0.40;;;0.40;;
13991;SDS011;7070;53.586;9.692;2023-05-07T11:09:58;0.40;;;0.40;;
13991;SDS011;7070;53.586;9.692;2023-05-07T11:15:37;0.43;;;0.43;;
13991;SDS011;7070;53.586;9.692;2023-05-07T11:18:12;0.40;;;0.40;;
13991;SDS011;7070;53.586;9.692;2023-05-07T11:20:51;0.50;;;0.50;;
13991;SDS011;7070;53.586;9.692;2023-05-07T11:26:42;0.40;;;0.40;;
13991;SDS011;7070;53.586;9.692;2023-05-07T11:29:11;0.50;;;0.50;;
13991;SDS011;7070;53.586;9.692;2023-05-07T11:31:39;0.50;;;0.50;;
13991;SDS011;7070;53.586;9.692;2023-05-07T11:34:08;0.40;;;0.40;;
13991;SDS011;7070;53.586;9.692;2023-05-07T11:36:35;0.40;;;0.40;;
13991;SDS011;7070;53.586;9.692;2023-05-07T11:39:22;0.37;;;0.37;;
13991;SDS011;7070;53.586;9.692;2023-05-07T11:41:50;0.40;;;0.40;;
13991;SDS011;7070;53.586;9.692;2023-05-07T11:44:17;0.40;;;0.40;;
13991;SDS011;7070;53.586;9.692;2023-05-07T11:46:44;0.40;;;0.40;;
13991;SDS011;7070;53.586;9.692;2023-05-07T11:49:13;0.40;;;0.40;;
13991;SDS011;7070;53.586;9.692;2023-05-07T11:51:40;0.40;;;0.40;;
13991;SDS011;7070;53.586;9.692;2023-05-07T11:54:08;0.30;;;0.30;;
13991;SDS011;7070;53.586;9.692;2023-05-07T11:56:36;0.40;;;0.40;;
13991;SDS011;7070;53.586;9.692;2023-05-07T11:59:04;0.40;;;0.40;;
13991;SDS011;7070;53.586;9.692;2023-05-07T12:01:31;0.40;;;0.40;;
13991;SDS011;7070;53.586;9.692;2023-05-07T12:03:58;0.50;;;0.50;;
13991;SDS011;7070;53.586;9.692;2023-05-07T12:06:30;0.40;;;0.40;;
13991;SDS011;7070;53.586;9.692;2023-05-07T12:08:56;0.40;;;0.40;;
13991;SDS011;7070;53.586;9.692;2023-05-07T12:11:24;0.40;;;0.40;;
13991;SDS011;7070;53.586;9.692;2023-05-07T12:13:51;0.40;;;0.40;;
13991;SDS011;7070;53.586;9.692;2023-05-07T12:16:20;0.40;;;0.40;;
13991;SDS011;7070;53.586;9.692;2023-05-07T12:18:47;0.40;;;0.40;;
13991;SDS011;7070;53.586;9.692;2023-05-07T12:21:15;0.50;;;0.50;;
13991;SDS011;7070;53.586;9.692;2023-05-07T12:23:44;0.40;;;0.40;;
13991;SDS011;7070;53.586;9.692;2023-05-07T12:26:11;0.40;;;0.40;;
13991;SDS011;7070;53.586;9.692;2023-05-07T12:28:38;0.37;;;0.37;;
13991;SDS011;7070;53.586;9.692;2023-05-07T12:31:05;0.40;;;0.40;;
13991;SDS011;7070;53.586;9.692;2023-05-07T12:33:33;0.40;;;0.40;;
13991;SDS011;7070;53.586;9.692;2023-05-07T12:36:02;0.50;;;0.50;;
13991;SDS011;7070;53.586;9.692;2023-05-07T12:38:35;0.30;;;0.30;;
13991;SDS011;7070;53.586;9.692;2023-05-07T12:41:05;0.40;;;0.40;;
13991;SDS011;7070;53.586;9.692;2023-05-07T12:43:33;0.40;;;0.40;;
13991;SDS011;7070;53.586;9.692;2023-05-07T12:46:00;0.40;;;0.40;;
13991;SDS011;7070;53.586;9.692;2023-05-07T12:48:31;0.40;;;0.40;;
13991;SDS011;7070;53.586;9.692;2023-05-07T12:50:59;0.40;;;0.40;;
13991;SDS011;7070;53.586;9.692;2023-05-07T12:53:27;0.40;;;0.40;;
13991;SDS011;7070;53.586;9.692;2023-05-07T12:55:56;0.40;;;0.40;;
13991;SDS011;7070;53.586;9.692;2023-05-07T12:58:26;0.40;;;0.40;;
13991;SDS011;7070;53.586;9.692;2023-05-07T13:00:54;0.40;;;0.40;;
13991;SDS011;7070;53.586;9.692;2023-05-07T13:03:24;0.50;;;0.50;;
13991;SDS011;7070;53.586;9.692;2023-05-07T13:05:53;0.40;;;0.40;;
13991;SDS011;7070;53.586;9.692;2023-05-07T13:08:25;0.50;;;0.50;;
13991;SDS011;7070;53.586;9.692;2023-05-07T13:10:53;0.40;;;0.40;;
13991;SDS011;7070;53.586;9.692;2023-05-07T13:13:20;0.40;;;0.40;;
13991;SDS011;7070;53.586;9.692;2023-05-07T13:15:48;0.33;;;0.33;;
13991;SDS011;7070;53.586;9.692;2023-05-07T13:18:15;0.40;;;0.40;;
13991;SDS011;7070;53.586;9.692;2023-05-07T13:20:42;0.43;;;0.43;;
13991;SDS011;7070;53.586;9.692;2023-05-07T13:23:09;0.47;;;0.47;;
13991;SDS011;7070;53.586;9.692;2023-05-07T13:25:36;0.33;;;0.33;;
13991;SDS011;7070;53.586;9.692;2023-05-07T13:28:02;0.40;;;0.40;;
13991;SDS011;7070;53.586;9.692;2023-05-07T13:30:30;0.40;;;0.40;;
13991;SDS011;7070;53.586;9.692;2023-05-07T13:32:58;0.30;;;0.30;;
13991;SDS011;7070;53.586;9.692;2023-05-07T13:35:25;0.33;;;0.33;;
13991;SDS011;7070;53.586;9.692;2023-05-07T13:37:52;0.30;;;0.30;;
13991;SDS011;7070;53.586;9.692;2023-05-07T13:40:19;0.30;;;0.30;;
13991;SDS011;7070;53.586;9.692;2023-05-07T13:42:46;0.40;;;0.40;;
13991;SDS011;7070;53.586;9.692;2023-05-07T13:45:13;0.33;;;0.33;;
13991;SDS011;7070;53.586;9.692;2023-05-07T13:47:40;0.40;;;0.40;;
13991;SDS011;7070;53.586;9.692;2023-05-07T13:50:09;0.40;;;0.40;;
13991;SDS011;7070;53.586;9.692;2023-05-07T13:52:38;0.40;;;0.40;;
13991;SDS011;7070;53.586;9.692;2023-05-07T13:55:08;0.30;;;0.30;;
13991;SDS011;7070;53.586;9.692;2023-05-07T13:57:35;0.30;;;0.30;;
13991;SDS011;7070;53.586;9.692;2023-05-07T14:00:03;0.30;;;0.30;;
13991;SDS011;7070;53.586;9.692;2023-05-07T14:02:31;0.40;;;0.40;;
13991;SDS011;7070;53.586;9.692;2023-05-07T14:04:58;0.40;;;0.40;;
13991;SDS011;7070;53.586;9.692;2023-05-07T14:07:26;0.37;;;0.37;;
13991;SDS011;7070;53.586;9.692;2023-05-07T14:09:53;0.43;;;0.43;;
13991;SDS011;7070;53.586;9.692;2023-05-07T14:12:20;0.30;;;0.30;;
13991;SDS011;7070;53.586;9.692;2023-05-07T14:14:47;0.30;;;0.30;;
13991;SDS011;7070;53.586;9.692;2023-05-07T14:17:14;0.40;;;0.40;;
13991;SDS011;7070;53.586;9.692;2023-05-07T14:19:42;0.30;;;0.30;;
13991;SDS011;7070;53.586;9.692;2023-05-07T14:22:09;0.40;;;0.40;;
13991;SDS011;7070;53.586;9.692;2023-05-07T14:24:37;0.40;;;0.40;;
13991;SDS011;7070;53.586;9.692;2023-05-07T14:27:04;0.40;;;0.40;;
13991;SDS011;7070;53.586;9.692;2023-05-07T14:29:31;0.30;;;0.30;;
13991;SDS011;7070;53.586;9.692;2023-05-07T14:32:00;0.30;;;0.30;;
13991;SDS011;7070;53.586;9.692;2023-05-07T14:34:27;0.47;;;0.47;;
13991;SDS011;7070;53.586;9.692;2023-05-07T14:36:54;0.30;;;0.30;;
13991;SDS011;7070;53.586;9.692;2023-05-07T14:39:21;0.40;;;0.40;;
13991;SDS011;7070;53.586;9.692;2023-05-07T14:41:49;0.40;;;0.40;;
13991;SDS011;7070;53.586;9.692;2023-05-07T14:44:16;0.30;;;0.30;;
13991;SDS011;7070;53.586;9.692;2023-05-07T14:46:43;0.40;;;0.40;;
13991;SDS011;7070;53.586;9.692;2023-05-07T14:49:10;0.30;;;0.30;;
13991;SDS011;7070;53.586;9.692;2023-05-07T14:51:42;0.30;;;0.30;;
13991;SDS011;7070;53.586;9.692;2023-05-07T14:54:08;0.40;;;0.40;;
13991;SDS011;7070;53.586;9.692;2023-05-07T14:56:35;0.30;;;0.30;;
13991;SDS011;7070;53.586;9.692;2023-05-07T14:59:04;0.50;;;0.50;;
13991;SDS011;7070;53.586;9.692;2023-05-07T15:01:30;0.40;;;0.40;;
13991;SDS011;7070;53.586;9.692;2023-05-07T15:03:57;0.40;;;0.40;;
13991;SDS011;7070;53.586;9.692;2023-05-07T15:06:25;0.40;;;0.40;;
13991;SDS011;7070;53.586;9.692;2023-05-07T15:08:52;0.47;;;0.47;;
13991;SDS011;7070;53.586;9.692;2023-05-07T15:11:19;0.40;;;0.40;;
13991;SDS011;7070;53.586;9.692;2023-05-07T15:13:46;0.40;;;0.40;;
13991;SDS011;7070;53.586;9.692;2023-05-07T15:16:14;0.40;;;0.40;;
13991;SDS011;7070;53.586;9.692;2023-05-07T15:18:42;0.40;;;0.40;;